Terminal Aerodrome Forecast
Issued by NWS

Home | Current Version | Previous Version | Text Only | Print | Product List | Glossary On
Versions: 1 2 3 4 5 6 7 8 9 10 11 12 13 14 15 16 17 18 19 20 21
000
FTUS43 KGRB 281737
TAFRHI
TAF
KRHI 281737Z 2818/2918 25003KT P6SM SCT015
     FM281900 22004KT P6SM SCT015 BKN120
     FM290000 17002KT P6SM FEW200
     FM290800 17003KT 3SM BR SCT090
      TEMPO 2908/2912 1SM BR BKN002
     FM291200 19003KT 4SM BR BKN008 PROB30 2912/2918 2SM -SHRA
      BKN004=

USA.gov is the U.S. government's official web portal to all federal, state and local government web resources and services.